createdAt,value
2023-12-22T00:00:52.178Z,31.10
2023-12-22T00:03:37.559Z,34.67
2023-12-22T00:06:22.475Z,34.20
2023-12-22T00:09:07.409Z,32.77
2023-12-22T00:11:52.321Z,32.73
2023-12-22T00:14:37.918Z,36.90
2023-12-22T00:17:22.825Z,34.63
2023-12-22T00:20:08.136Z,29.00
2023-12-22T00:22:52.898Z,31.23
2023-12-22T00:25:37.858Z,37.20
2023-12-22T00:28:23.291Z,36.53
2023-12-22T00:31:08.362Z,34.87
2023-12-22T00:33:53.754Z,28.50
2023-12-22T00:36:39.030Z,33.87
2023-12-22T00:39:24.003Z,27.60
2023-12-22T00:42:08.849Z,29.13
2023-12-22T00:44:53.641Z,33.57
2023-12-22T00:47:38.457Z,33.77
2023-12-22T00:50:24.013Z,33.50
2023-12-22T00:53:08.864Z,27.00
2023-12-22T00:55:54.892Z,32.93
2023-12-22T00:58:41.071Z,33.03
2023-12-22T01:01:26.083Z,24.03
2023-12-22T01:04:11.605Z,27.07
2023-12-22T01:06:57.050Z,28.47
2023-12-22T01:09:43.510Z,33.27
2023-12-22T01:12:29.341Z,28.20
2023-12-22T01:15:14.552Z,22.80
2023-12-22T01:17:59.439Z,24.37
2023-12-22T01:20:44.312Z,28.50
2023-12-22T01:23:29.032Z,36.93
2023-12-22T01:26:13.876Z,25.37
2023-12-22T01:28:58.766Z,29.43
2023-12-22T01:31:44.177Z,29.30
2023-12-22T01:34:29.449Z,24.60
2023-12-22T01:37:14.386Z,28.53
2023-12-22T01:39:59.378Z,26.83
2023-12-22T01:42:44.177Z,26.63
2023-12-22T01:45:29.091Z,25.93
2023-12-22T01:48:14.170Z,25.90
2023-12-22T01:51:00.886Z,24.63
2023-12-22T01:53:47.004Z,23.93
2023-12-22T01:56:32.260Z,25.97
2023-12-22T01:59:17.402Z,23.93
2023-12-22T02:02:03.515Z,23.60
2023-12-22T02:04:49.205Z,25.77
2023-12-22T02:07:34.770Z,27.30
2023-12-22T02:10:19.582Z,31.80
2023-12-22T02:13:08.465Z,24.37
2023-12-22T02:16:08.747Z,35.03
2023-12-22T02:18:56.997Z,29.40
2023-12-22T02:22:08.657Z,29.40
2023-12-22T02:24:54.731Z,27.33
2023-12-22T02:27:50.766Z,31.37
2023-12-22T02:30:48.535Z,24.83
2023-12-22T02:33:37.210Z,24.83
2023-12-22T02:36:22.840Z,29.97
2023-12-22T02:39:09.425Z,31.27
2023-12-22T02:41:54.934Z,25.80
2023-12-22T02:44:40.028Z,29.10
2023-12-22T02:47:25.359Z,27.53
2023-12-22T02:50:11.573Z,24.13
2023-12-22T02:52:57.070Z,29.57
2023-12-22T02:55:42.545Z,27.80
2023-12-22T02:58:27.960Z,20.73
2023-12-22T03:01:12.747Z,26.50
2023-12-22T03:03:57.700Z,25.90
2023-12-22T03:06:42.579Z,26.03
2023-12-22T03:09:27.430Z,31.97
2023-12-22T03:12:12.370Z,25.00
2023-12-22T03:14:57.827Z,28.57
2023-12-22T03:17:42.953Z,27.83
2023-12-22T03:20:27.882Z,28.13
2023-12-22T03:23:12.909Z,18.97
2023-12-22T03:25:57.877Z,21.97
2023-12-22T03:28:43.278Z,20.40
2023-12-22T03:31:28.760Z,27.87
2023-12-22T03:34:14.268Z,26.80
2023-12-22T03:36:59.337Z,28.90
2023-12-22T03:39:44.245Z,23.73
2023-12-22T03:42:29.204Z,31.17
2023-12-22T03:45:14.042Z,25.03
2023-12-22T03:47:59.442Z,26.10
2023-12-22T03:50:44.655Z,23.17
2023-12-22T03:53:29.530Z,30.63
2023-12-22T03:56:14.509Z,24.83
2023-12-22T03:58:59.472Z,29.37
2023-12-22T04:01:44.291Z,22.00
2023-12-22T04:04:29.164Z,25.37
2023-12-22T04:07:14.411Z,18.60
2023-12-22T04:09:59.376Z,19.57
2023-12-22T04:12:44.519Z,19.40
2023-12-22T04:15:29.688Z,15.20
2023-12-22T04:18:14.592Z,18.50
2023-12-22T04:20:59.574Z,12.03
2023-12-22T04:23:44.498Z,11.37
2023-12-22T04:26:29.455Z,10.77
2023-12-22T04:29:15.209Z,14.67
2023-12-22T04:32:00.413Z,15.60
2023-12-22T04:34:45.428Z,12.30
2023-12-22T04:37:30.418Z,13.50
2023-12-22T04:40:15.253Z,10.53
2023-12-22T04:43:00.355Z,16.77
2023-12-22T04:45:45.510Z,14.80
2023-12-22T04:48:30.543Z,9.97
2023-12-22T04:51:15.858Z,11.50
2023-12-22T04:54:01.320Z,13.13
2023-12-22T04:56:46.248Z,16.43
2023-12-22T04:59:32.043Z,15.10
2023-12-22T05:02:17.255Z,12.57
2023-12-22T05:05:02.152Z,14.33
2023-12-22T05:07:47.207Z,15.87
2023-12-22T05:10:32.459Z,15.23
2023-12-22T05:13:17.568Z,11.67
2023-12-22T05:16:02.292Z,12.50
2023-12-22T05:18:47.562Z,13.63
2023-12-22T05:21:32.683Z,12.33
2023-12-22T05:24:17.575Z,13.90
2023-12-22T05:27:02.892Z,15.97
2023-12-22T05:29:47.832Z,9.00
2023-12-22T05:32:32.769Z,18.70
2023-12-22T05:35:17.695Z,11.80
2023-12-22T05:38:03.372Z,15.30
2023-12-22T05:40:48.746Z,15.10
2023-12-22T05:43:34.271Z,17.07
2023-12-22T05:46:19.590Z,15.03
2023-12-22T05:49:04.852Z,14.43
2023-12-22T05:51:50.226Z,16.47
2023-12-22T05:54:35.013Z,17.13
2023-12-22T05:57:19.917Z,14.53
2023-12-22T06:00:05.948Z,18.23
2023-12-22T06:02:51.031Z,15.13
2023-12-22T06:05:36.110Z,14.67
2023-12-22T06:08:21.392Z,21.20
2023-12-22T06:11:06.677Z,23.83
2023-12-22T06:13:51.501Z,20.33
2023-12-22T06:16:37.024Z,22.33
2023-12-22T06:19:21.820Z,23.33
2023-12-22T06:22:06.799Z,19.30
2023-12-22T06:24:52.049Z,20.00
2023-12-22T06:27:37.157Z,17.73
2023-12-22T06:30:22.002Z,21.50
2023-12-22T06:33:06.982Z,22.00
2023-12-22T06:35:52.237Z,17.97
2023-12-22T06:38:37.077Z,24.40
2023-12-22T06:41:32.028Z,25.57
2023-12-22T06:44:17.165Z,18.80
2023-12-22T06:47:02.338Z,27.13
2023-12-22T06:49:47.657Z,23.43
2023-12-22T06:52:33.034Z,22.87
2023-12-22T06:55:18.077Z,22.27
2023-12-22T06:58:03.273Z,19.17
2023-12-22T07:00:48.357Z,19.60
2023-12-22T07:03:33.249Z,24.13
2023-12-22T07:06:19.461Z,23.13
2023-12-22T07:09:16.685Z,22.07
2023-12-22T07:12:01.673Z,22.07
2023-12-22T07:14:47.557Z,27.63
2023-12-22T07:17:32.703Z,22.30
2023-12-22T07:20:17.921Z,22.37
2023-12-22T07:23:02.966Z,21.70
2023-12-22T07:25:47.914Z,18.70
2023-12-22T07:28:33.798Z,23.90
2023-12-22T07:31:19.604Z,24.37
2023-12-22T07:34:04.654Z,23.30
2023-12-22T07:36:59.113Z,23.67
2023-12-22T07:39:48.462Z,18.40
2023-12-22T07:42:33.895Z,23.63
2023-12-22T07:45:18.776Z,23.90
2023-12-22T07:48:03.964Z,21.93
2023-12-22T07:50:49.249Z,21.43
2023-12-22T07:53:34.834Z,24.77
2023-12-22T07:56:19.705Z,22.17
2023-12-22T07:59:13.662Z,26.20
2023-12-22T08:02:08.786Z,28.00
2023-12-22T08:04:54.187Z,30.17
2023-12-22T08:07:39.054Z,31.00
2023-12-22T08:10:24.077Z,27.70
2023-12-22T08:13:09.362Z,25.33
2023-12-22T08:15:54.417Z,24.00
2023-12-22T08:18:39.391Z,22.13
2023-12-22T08:21:33.733Z,26.27
2023-12-22T08:24:24.861Z,23.63
2023-12-22T08:27:10.346Z,21.83
2023-12-22T08:29:55.601Z,20.13
2023-12-22T08:32:40.504Z,21.37
2023-12-22T08:35:25.981Z,24.77
2023-12-22T08:38:11.213Z,24.13
2023-12-22T08:40:59.227Z,22.57
2023-12-22T08:43:46.040Z,25.53
2023-12-22T08:46:31.127Z,17.13
2023-12-22T08:49:16.017Z,23.13
2023-12-22T08:52:01.604Z,20.00
2023-12-22T08:54:46.379Z,19.00
2023-12-22T08:57:31.358Z,16.27
2023-12-22T09:00:16.384Z,12.57
2023-12-22T09:03:01.715Z,12.67
2023-12-22T09:05:46.615Z,13.67
2023-12-22T09:08:31.423Z,11.80
2023-12-22T09:11:21.061Z,11.93
2023-12-22T09:14:07.310Z,10.90
2023-12-22T09:16:52.734Z,7.00
2023-12-22T09:19:37.774Z,12.13
2023-12-22T09:22:23.096Z,10.27
2023-12-22T09:25:08.119Z,12.07
2023-12-22T09:27:53.082Z,10.20
2023-12-22T09:30:37.945Z,11.17
2023-12-22T09:33:22.938Z,15.47
2023-12-22T09:36:08.817Z,12.47
2023-12-22T09:38:53.904Z,14.47
2023-12-22T09:41:38.885Z,13.30
2023-12-22T09:44:25.217Z,11.83
2023-12-22T09:47:11.766Z,13.33
2023-12-22T09:49:59.012Z,10.53
2023-12-22T09:52:44.850Z,13.13
2023-12-22T09:55:33.595Z,13.43
2023-12-22T09:58:19.025Z,10.23
2023-12-22T10:01:05.735Z,8.90
2023-12-22T10:03:50.895Z,8.43
2023-12-22T10:06:35.827Z,11.90
2023-12-22T10:09:21.222Z,11.77
2023-12-22T10:12:07.754Z,13.50
2023-12-22T10:14:54.168Z,12.40
2023-12-22T10:17:40.909Z,14.73
2023-12-22T10:20:25.720Z,17.57
2023-12-22T10:23:10.699Z,10.37
2023-12-22T10:25:58.752Z,15.60
2023-12-22T10:28:44.048Z,12.47
2023-12-22T10:31:40.735Z,13.37
2023-12-22T10:34:26.134Z,16.30
2023-12-22T10:37:11.536Z,12.13
2023-12-22T10:39:56.479Z,12.93
2023-12-22T10:42:41.779Z,14.40
2023-12-22T10:45:26.916Z,7.37
2023-12-22T10:48:12.065Z,8.47
2023-12-22T10:50:57.333Z,15.77
2023-12-22T10:53:43.247Z,10.20
2023-12-22T10:56:29.412Z,14.00
2023-12-22T10:59:19.174Z,14.77
2023-12-22T11:02:05.309Z,11.30
2023-12-22T11:04:58.728Z,14.40
2023-12-22T11:07:49.241Z,14.33
2023-12-22T11:10:38.346Z,15.00
2023-12-22T11:13:24.434Z,13.90
2023-12-22T11:16:10.505Z,9.57
2023-12-22T11:18:56.836Z,14.03
2023-12-22T11:21:42.058Z,16.20
2023-12-22T11:24:29.303Z,14.93
2023-12-22T11:27:16.296Z,12.77
2023-12-22T11:30:01.995Z,14.30
2023-12-22T11:32:50.093Z,16.90
2023-12-22T11:35:36.353Z,15.10
2023-12-22T11:38:21.525Z,18.57
2023-12-22T11:41:10.086Z,14.23
2023-12-22T11:43:57.042Z,12.90
2023-12-22T11:46:42.491Z,15.93
2023-12-22T11:49:36.280Z,11.13
2023-12-22T11:52:27.106Z,15.27
2023-12-22T11:55:12.200Z,11.70
2023-12-22T11:57:57.182Z,11.17
2023-12-22T12:00:41.957Z,9.07
2023-12-22T12:03:27.911Z,13.10
2023-12-22T12:06:27.825Z,9.20
2023-12-22T12:09:13.373Z,7.53
2023-12-22T12:12:10.445Z,9.70
2023-12-22T12:14:59.116Z,5.97
2023-12-22T12:17:44.423Z,8.77
2023-12-22T12:20:29.974Z,56.53
2023-12-22T12:23:16.480Z,7.83
2023-12-22T12:26:02.082Z,5.00
2023-12-22T12:28:48.018Z,7.23
2023-12-22T12:31:37.347Z,7.77
2023-12-22T12:34:23.955Z,10.20
2023-12-22T12:37:09.689Z,7.07
2023-12-22T12:39:59.549Z,6.77
2023-12-22T12:42:45.453Z,6.63
2023-12-22T12:45:30.792Z,7.67
2023-12-22T12:48:19.507Z,7.83
2023-12-22T12:51:06.469Z,7.23
2023-12-22T12:53:51.600Z,3.53
2023-12-22T12:56:41.601Z,4.07
2023-12-22T12:59:26.604Z,4.77
2023-12-22T13:02:11.764Z,4.33
2023-12-22T13:04:57.266Z,1.83
2023-12-22T13:07:42.732Z,6.10
2023-12-22T13:10:27.602Z,4.43
2023-12-22T13:13:12.667Z,4.93
2023-12-22T13:15:57.843Z,1.57
2023-12-22T13:18:43.464Z,7.00
2023-12-22T13:21:29.953Z,3.73
2023-12-22T13:24:18.417Z,5.60
2023-12-22T13:27:05.506Z,6.00
2023-12-22T13:29:50.581Z,5.10
2023-12-22T13:32:35.560Z,3.00
2023-12-22T13:35:24.772Z,3.23
2023-12-22T13:38:10.665Z,3.27
2023-12-22T13:40:56.103Z,4.63
2023-12-22T13:43:41.144Z,3.10
2023-12-22T13:46:28.830Z,3.57
2023-12-22T13:49:14.059Z,5.57
2023-12-22T13:51:59.429Z,5.30
2023-12-22T13:54:44.402Z,5.93
2023-12-22T13:57:29.816Z,4.20
2023-12-22T14:00:20.965Z,4.97
2023-12-22T14:03:05.864Z,3.77
2023-12-22T14:05:54.011Z,4.73
2023-12-22T14:08:42.332Z,4.87
2023-12-22T14:11:30.371Z,6.37
2023-12-22T14:14:16.672Z,3.07
2023-12-22T14:17:01.598Z,5.07
2023-12-22T14:19:46.511Z,4.77
2023-12-22T14:22:31.891Z,5.20
2023-12-22T14:25:16.807Z,4.97
2023-12-22T14:28:01.674Z,7.60
2023-12-22T14:30:46.706Z,6.07
2023-12-22T14:33:32.021Z,12.30
2023-12-22T14:36:17.094Z,8.70
2023-12-22T14:39:01.981Z,5.97
2023-12-22T14:41:46.894Z,3.83
2023-12-22T14:44:32.039Z,6.07
2023-12-22T14:47:17.445Z,7.13
2023-12-22T14:50:03.618Z,6.37
2023-12-22T14:52:48.923Z,5.13
2023-12-22T14:55:34.316Z,6.97
2023-12-22T14:58:19.066Z,6.13
2023-12-22T15:01:04.284Z,4.13
2023-12-22T15:03:49.507Z,7.30
2023-12-22T15:06:39.274Z,7.10
2023-12-22T15:09:24.405Z,4.17
2023-12-22T15:12:09.350Z,5.47
2023-12-22T15:14:54.702Z,3.87
2023-12-22T15:17:39.659Z,6.63
2023-12-22T15:20:24.634Z,4.23
2023-12-22T15:23:10.031Z,3.73
2023-12-22T15:25:54.794Z,4.93
2023-12-22T15:28:39.669Z,4.33
2023-12-22T15:31:24.443Z,7.00
2023-12-22T15:34:09.426Z,4.07
2023-12-22T15:36:54.987Z,3.20
2023-12-22T15:39:40.135Z,4.83
2023-12-22T15:42:25.115Z,2.37
2023-12-22T15:45:11.219Z,2.90
2023-12-22T15:47:56.469Z,4.47
2023-12-22T15:50:41.277Z,6.47
2023-12-22T15:53:26.201Z,4.53
2023-12-22T15:56:12.023Z,4.23
2023-12-22T15:58:57.373Z,4.23
2023-12-22T16:01:46.028Z,6.27
2023-12-22T16:04:31.110Z,5.53
2023-12-22T16:07:15.953Z,4.77
2023-12-22T16:10:01.454Z,5.97
2023-12-22T16:12:46.527Z,4.90
2023-12-22T16:15:31.804Z,5.37
2023-12-22T16:18:16.614Z,6.67
2023-12-22T16:21:01.962Z,6.97
2023-12-22T16:23:46.854Z,3.70
2023-12-22T16:26:31.763Z,3.50
2023-12-22T16:29:16.797Z,5.13
2023-12-22T16:32:01.848Z,4.03
2023-12-22T16:34:46.645Z,5.40
2023-12-22T16:37:31.650Z,4.03
2023-12-22T16:40:16.709Z,6.23
2023-12-22T16:43:01.850Z,3.77
2023-12-22T16:45:46.766Z,5.40
2023-12-22T16:48:31.602Z,2.70
2023-12-22T16:51:16.377Z,5.23
2023-12-22T16:54:01.313Z,4.63
2023-12-22T16:56:46.645Z,5.63
2023-12-22T16:59:31.614Z,4.10
2023-12-22T17:02:27.841Z,3.60
2023-12-22T17:05:18.525Z,3.27
2023-12-22T17:08:04.966Z,5.97
2023-12-22T17:10:50.396Z,2.43
2023-12-22T17:13:35.695Z,1.43
2023-12-22T17:16:20.555Z,1.60
2023-12-22T17:19:05.422Z,1.47
2023-12-22T17:21:50.223Z,2.30
2023-12-22T17:24:35.305Z,3.27
2023-12-22T17:27:20.214Z,2.37
2023-12-22T17:30:05.699Z,3.20
2023-12-22T17:32:50.957Z,2.03
2023-12-22T17:35:36.398Z,3.87
2023-12-22T17:38:21.505Z,2.10
2023-12-22T17:41:06.895Z,0.63
2023-12-22T17:43:52.149Z,3.80
2023-12-22T17:46:37.902Z,2.77
2023-12-22T17:49:23.241Z,1.93
2023-12-22T17:52:08.178Z,1.53
2023-12-22T17:54:52.945Z,2.20
2023-12-22T17:57:37.926Z,0.90
2023-12-22T18:00:22.861Z,1.80
2023-12-22T18:03:07.831Z,2.83
2023-12-22T18:05:52.830Z,2.83
2023-12-22T18:08:37.621Z,4.53
2023-12-22T18:11:22.538Z,3.30
2023-12-22T18:14:07.644Z,7.00
2023-12-22T18:16:52.733Z,8.63
2023-12-22T18:19:37.539Z,7.53
2023-12-22T18:22:22.914Z,4.83
2023-12-22T18:25:07.982Z,5.97
2023-12-22T18:27:53.022Z,10.70
2023-12-22T18:30:37.819Z,14.63
2023-12-22T18:33:22.858Z,7.17
2023-12-22T18:36:08.356Z,6.33
2023-12-22T18:38:53.341Z,3.57
2023-12-22T18:41:38.432Z,5.77
2023-12-22T18:44:23.616Z,4.87
2023-12-22T18:47:08.564Z,6.83
2023-12-22T18:49:54.050Z,5.07
2023-12-22T18:52:39.005Z,15.37
2023-12-22T18:55:24.009Z,8.27
2023-12-22T18:58:08.877Z,6.97
2023-12-22T19:00:53.932Z,5.90
2023-12-22T19:03:39.386Z,9.87
2023-12-22T19:06:25.704Z,10.37
2023-12-22T19:09:10.852Z,6.17
2023-12-22T19:11:56.337Z,9.27
2023-12-22T19:14:41.326Z,10.70
2023-12-22T19:17:26.172Z,7.23
2023-12-22T19:20:11.654Z,9.33
2023-12-22T19:22:57.159Z,11.73
2023-12-22T19:25:41.979Z,11.67
2023-12-22T19:28:26.935Z,11.77
2023-12-22T19:31:11.840Z,10.17
2023-12-22T19:33:56.890Z,12.43
2023-12-22T19:36:42.105Z,14.87
2023-12-22T19:39:26.965Z,12.63
2023-12-22T19:42:11.951Z,8.40
2023-12-22T19:44:57.062Z,9.77
2023-12-22T19:47:41.984Z,8.97
2023-12-22T19:50:26.874Z,12.10
2023-12-22T19:53:12.079Z,12.57
2023-12-22T19:55:57.171Z,9.70
2023-12-22T19:58:42.733Z,14.30
2023-12-22T20:01:27.613Z,9.00
2023-12-22T20:04:12.681Z,9.90
2023-12-22T20:06:58.980Z,15.47
2023-12-22T20:09:43.929Z,12.93
2023-12-22T20:12:28.780Z,14.10
2023-12-22T20:15:13.727Z,22.07
2023-12-22T20:17:58.683Z,12.70
2023-12-22T20:20:44.206Z,13.37
2023-12-22T20:23:29.511Z,15.33
2023-12-22T20:26:16.549Z,13.63
2023-12-22T20:29:02.074Z,9.13
2023-12-22T20:31:47.171Z,13.30
2023-12-22T20:34:32.657Z,9.87
2023-12-22T20:37:17.445Z,15.17
2023-12-22T20:40:02.443Z,11.43
2023-12-22T20:42:47.230Z,17.73
2023-12-22T20:45:32.108Z,15.67
2023-12-22T20:48:17.017Z,12.10
2023-12-22T20:51:03.614Z,16.20
2023-12-22T20:53:48.896Z,13.67
2023-12-22T20:56:33.821Z,16.33
2023-12-22T20:59:19.447Z,13.03
2023-12-22T21:02:05.163Z,12.07
2023-12-22T21:04:50.549Z,9.47
2023-12-22T21:07:35.390Z,15.77
2023-12-22T21:10:20.381Z,14.37
2023-12-22T21:13:05.293Z,12.37
2023-12-22T21:15:50.475Z,16.57
2023-12-22T21:18:37.981Z,13.57
2023-12-22T21:21:22.747Z,8.87
2023-12-22T21:24:07.700Z,11.23
2023-12-22T21:26:52.628Z,13.43
2023-12-22T21:29:37.810Z,11.40
2023-12-22T21:32:23.195Z,13.57
2023-12-22T21:35:08.751Z,11.07
2023-12-22T21:37:54.406Z,10.13
2023-12-22T21:40:39.621Z,15.17
2023-12-22T21:43:24.588Z,15.17
2023-12-22T21:46:10.344Z,11.77
2023-12-22T21:48:55.531Z,20.17
2023-12-22T21:51:40.497Z,16.83
2023-12-22T21:54:25.417Z,12.00
2023-12-22T21:57:10.442Z,17.93
2023-12-22T21:59:55.294Z,13.93
2023-12-22T22:02:40.241Z,15.97
2023-12-22T22:05:25.084Z,12.83
2023-12-22T22:08:10.612Z,12.53
2023-12-22T22:10:55.991Z,13.80
2023-12-22T22:13:44.021Z,12.73
2023-12-22T22:16:29.628Z,14.30
2023-12-22T22:19:14.856Z,15.13
2023-12-22T22:21:59.625Z,14.43
2023-12-22T22:24:44.670Z,15.60
2023-12-22T22:27:29.602Z,17.83
2023-12-22T22:30:14.609Z,15.07
2023-12-22T22:32:59.479Z,36.43
2023-12-22T22:35:44.368Z,17.37
2023-12-22T22:38:29.422Z,12.30
2023-12-22T22:41:14.725Z,19.57
2023-12-22T22:44:00.371Z,16.73
2023-12-22T22:46:45.683Z,16.77
2023-12-22T22:49:30.605Z,13.10
2023-12-22T22:52:15.375Z,11.30
2023-12-22T22:55:00.396Z,17.23
2023-12-22T22:57:45.299Z,16.20
2023-12-22T23:00:30.255Z,18.33
2023-12-22T23:03:15.195Z,15.10
2023-12-22T23:06:04.246Z,18.70
2023-12-22T23:08:49.051Z,13.13
2023-12-22T23:11:34.483Z,22.80
2023-12-22T23:14:19.307Z,15.40
2023-12-22T23:17:04.840Z,20.63
2023-12-22T23:19:49.647Z,17.63
2023-12-22T23:22:35.036Z,13.97
2023-12-22T23:25:19.786Z,14.97
2023-12-22T23:28:05.168Z,14.03
2023-12-22T23:30:50.363Z,16.03
2023-12-22T23:33:35.466Z,16.70
2023-12-22T23:36:25.526Z,15.13
2023-12-22T23:39:13.256Z,12.87
2023-12-22T23:41:58.803Z,17.60
2023-12-22T23:44:43.793Z,12.37
2023-12-22T23:47:28.619Z,12.17
2023-12-22T23:50:14.128Z,14.93
2023-12-22T23:52:59.025Z,14.57
2023-12-22T23:55:44.061Z,17.30
2023-12-22T23:58:29.009Z,16.33
